createdAt,value
2022-10-20T00:02:15.652Z,2.88
2022-10-20T00:04:42.089Z,2.70
2022-10-20T00:07:08.492Z,3.45
2022-10-20T00:09:34.887Z,2.67
2022-10-20T00:12:01.339Z,2.80
2022-10-20T00:14:27.801Z,3.92
2022-10-20T00:16:54.204Z,3.17
2022-10-20T00:19:20.648Z,2.90
2022-10-20T00:21:47.066Z,3.33
2022-10-20T00:24:13.530Z,3.10
2022-10-20T00:26:39.972Z,3.22
2022-10-20T00:29:06.454Z,3.45
2022-10-20T00:31:32.977Z,3.45
2022-10-20T00:33:59.469Z,3.55
2022-10-20T00:36:25.917Z,3.22
2022-10-20T00:38:57.490Z,3.38
2022-10-20T00:41:23.950Z,3.28
2022-10-20T00:43:56.021Z,3.20
2022-10-20T00:46:42.367Z,2.58
2022-10-20T00:49:23.460Z,3.00
2022-10-20T00:51:52.692Z,3.55
2022-10-20T00:56:49.806Z,3.10
2022-10-20T00:59:19.610Z,3.60
2022-10-20T01:01:46.563Z,3.08
2022-10-20T01:04:13.374Z,3.42
2022-10-20T01:06:39.866Z,3.42
2022-10-20T01:09:07.213Z,3.53
2022-10-20T01:11:58.422Z,3.22
2022-10-20T01:14:37.101Z,2.90
2022-10-20T01:17:23.748Z,2.92
2022-10-20T01:20:28.166Z,3.55
2022-10-20T01:23:40.749Z,3.20
2022-10-20T01:26:24.493Z,3.03
2022-10-20T01:28:58.548Z,3.40
2022-10-20T01:31:49.890Z,3.42
2022-10-20T01:34:28.437Z,3.58
2022-10-20T01:37:00.977Z,3.70
2022-10-20T01:39:50.737Z,3.00
2022-10-20T01:42:24.509Z,3.50
2022-10-20T01:44:58.509Z,3.67
2022-10-20T01:47:27.267Z,3.58
2022-10-20T01:49:54.340Z,3.30
2022-10-20T01:52:22.258Z,3.28
2022-10-20T01:54:48.746Z,2.88
2022-10-20T01:57:22.895Z,3.30
2022-10-20T01:59:58.237Z,3.30
2022-10-20T02:02:27.319Z,3.58
2022-10-20T02:05:05.828Z,3.40
2022-10-20T02:07:33.432Z,3.15
2022-10-20T02:10:17.008Z,3.15
2022-10-20T02:12:47.986Z,3.25
2022-10-20T02:15:19.215Z,2.70
2022-10-20T02:17:49.510Z,3.75
2022-10-20T02:20:16.982Z,3.15
2022-10-20T02:22:44.890Z,3.40
2022-10-20T02:25:12.774Z,3.10
2022-10-20T02:27:43.476Z,3.20
2022-10-20T02:30:13.917Z,3.17
2022-10-20T02:32:42.686Z,2.75
2022-10-20T02:35:17.423Z,3.30
2022-10-20T02:37:43.920Z,3.47
2022-10-20T02:40:10.925Z,3.42
2022-10-20T02:42:38.626Z,3.50
2022-10-20T02:45:05.536Z,2.83
2022-10-20T02:47:31.951Z,3.03
2022-10-20T02:49:58.447Z,4.22
2022-10-20T02:52:24.879Z,3.58
2022-10-20T02:54:51.296Z,3.60
2022-10-20T02:57:17.785Z,3.75
2022-10-20T02:59:44.181Z,2.97
2022-10-20T03:02:10.596Z,3.20
2022-10-20T03:04:37.061Z,3.20
2022-10-20T03:07:03.609Z,3.60
2022-10-20T03:09:30.077Z,3.53
2022-10-20T03:11:56.482Z,3.80
2022-10-20T03:14:22.867Z,3.67
2022-10-20T03:16:49.505Z,4.40
2022-10-20T03:19:15.948Z,3.88
2022-10-20T03:21:42.388Z,3.78
2022-10-20T03:24:08.812Z,3.35
2022-10-20T03:26:35.305Z,3.45
2022-10-20T03:29:01.695Z,3.60
2022-10-20T03:31:28.239Z,3.03
2022-10-20T03:33:54.692Z,3.70
2022-10-20T03:36:21.248Z,3.42
2022-10-20T03:38:47.611Z,3.75
2022-10-20T03:41:14.037Z,3.55
2022-10-20T03:43:40.851Z,4.32
2022-10-20T03:46:11.454Z,3.75
2022-10-20T03:48:39.712Z,3.67
2022-10-20T03:51:06.871Z,3.60
2022-10-20T03:53:33.320Z,2.97
2022-10-20T03:55:59.748Z,3.47
2022-10-20T03:58:26.162Z,3.80
2022-10-20T04:00:52.823Z,3.33
2022-10-20T04:03:19.225Z,3.67
2022-10-20T04:05:45.774Z,3.88
2022-10-20T04:08:12.232Z,3.50
2022-10-20T04:10:38.731Z,3.30
2022-10-20T04:13:05.136Z,3.38
2022-10-20T04:15:31.615Z,3.88
2022-10-20T04:17:58.688Z,4.00
2022-10-20T04:20:25.442Z,4.10
2022-10-20T04:22:51.887Z,3.72
2022-10-20T04:25:18.496Z,3.65
2022-10-20T04:27:44.980Z,3.42
2022-10-20T04:30:14.067Z,3.28
2022-10-20T04:32:40.633Z,4.00
2022-10-20T04:35:07.588Z,3.70
2022-10-20T04:37:34.453Z,4.10
2022-10-20T04:40:01.242Z,3.45
2022-10-20T04:42:27.724Z,3.75
2022-10-20T04:44:54.186Z,3.83
2022-10-20T04:47:20.707Z,3.60
2022-10-20T04:49:47.099Z,3.53
2022-10-20T04:52:13.622Z,3.72
2022-10-20T04:54:40.040Z,3.72
2022-10-20T04:57:06.568Z,3.70
2022-10-20T04:59:33.049Z,3.25
2022-10-20T05:01:59.489Z,3.60
2022-10-20T05:04:26.169Z,3.67
2022-10-20T05:06:52.559Z,3.00
2022-10-20T05:09:19.774Z,3.72
2022-10-20T05:11:46.465Z,3.92
2022-10-20T05:14:12.944Z,4.18
2022-10-20T05:16:39.355Z,3.58
2022-10-20T05:19:05.768Z,4.28
2022-10-20T05:21:32.366Z,2.58
2022-10-20T05:24:04.676Z,3.28
2022-10-20T05:26:34.820Z,3.40
2022-10-20T05:29:04.119Z,5.15
2022-10-20T05:31:30.923Z,3.55
2022-10-20T05:33:58.008Z,3.60
2022-10-20T05:36:26.902Z,3.40
2022-10-20T05:38:55.115Z,3.92
2022-10-20T05:41:36.242Z,3.40
2022-10-20T05:44:08.478Z,3.50
2022-10-20T05:46:43.769Z,3.70
2022-10-20T05:49:14.299Z,3.50
2022-10-20T05:51:41.011Z,3.60
2022-10-20T05:54:07.549Z,3.25
2022-10-20T05:56:34.315Z,3.40
2022-10-20T05:59:00.822Z,3.30
2022-10-20T06:01:48.101Z,3.40
2022-10-20T06:04:19.544Z,3.33
2022-10-20T06:06:47.279Z,3.40
2022-10-20T06:09:13.690Z,3.17
2022-10-20T06:11:40.490Z,3.50
2022-10-20T06:14:08.592Z,2.33
2022-10-20T06:16:35.478Z,3.20
2022-10-20T06:19:02.225Z,3.50
2022-10-20T06:21:31.914Z,2.90
2022-10-20T06:24:04.553Z,3.22
2022-10-20T06:26:33.148Z,3.53
2022-10-20T06:29:04.291Z,3.47
2022-10-20T06:31:39.050Z,3.60
2022-10-20T06:34:12.698Z,3.70
2022-10-20T06:36:41.892Z,3.67
2022-10-20T06:41:36.827Z,3.50
2022-10-20T06:44:03.587Z,3.30
2022-10-20T06:46:32.123Z,3.30
2022-10-20T06:49:03.702Z,3.30
2022-10-20T06:51:30.205Z,3.70
2022-10-20T06:53:56.624Z,3.40
2022-10-20T06:56:25.213Z,3.33
2022-10-20T06:58:54.016Z,3.70
2022-10-20T07:01:23.317Z,3.63
2022-10-20T07:03:51.376Z,3.03
2022-10-20T07:06:21.559Z,3.83
2022-10-20T07:08:48.566Z,3.47
2022-10-20T07:11:21.145Z,2.95
2022-10-20T07:13:49.350Z,2.75
2022-10-20T07:16:19.145Z,3.90
2022-10-20T07:18:46.288Z,3.45
2022-10-20T07:21:16.060Z,3.45
2022-10-20T07:23:42.543Z,3.70
2022-10-20T07:26:12.716Z,3.88
2022-10-20T07:28:44.581Z,4.07
2022-10-20T07:31:14.427Z,3.30
2022-10-20T07:33:41.461Z,3.92
2022-10-20T07:36:19.717Z,4.05
2022-10-20T07:38:47.218Z,3.65
2022-10-20T07:41:14.370Z,3.60
2022-10-20T07:43:41.813Z,3.72
2022-10-20T07:46:09.784Z,3.33
2022-10-20T07:48:36.387Z,3.80
2022-10-20T07:51:21.629Z,4.68
2022-10-20T07:53:49.283Z,4.18
2022-10-20T07:56:16.665Z,3.83
2022-10-20T07:58:43.569Z,4.15
2022-10-20T08:01:10.651Z,3.15
2022-10-20T08:03:38.804Z,3.83
2022-10-20T08:06:06.005Z,4.15
2022-10-20T08:08:33.690Z,4.13
2022-10-20T08:11:01.003Z,3.67
2022-10-20T08:13:28.941Z,3.97
2022-10-20T08:18:44.283Z,3.90
2022-10-20T08:21:16.581Z,4.28
2022-10-20T08:23:44.753Z,2.95
2022-10-20T08:26:12.773Z,3.50
2022-10-20T08:28:39.417Z,3.85
2022-10-20T08:31:07.503Z,3.88
2022-10-20T08:33:35.284Z,3.45
2022-10-20T08:36:10.387Z,3.75
2022-10-20T08:41:25.721Z,4.05
2022-10-20T08:43:55.116Z,3.70
2022-10-20T08:46:29.063Z,3.65
2022-10-20T08:48:56.333Z,3.33
2022-10-20T08:51:27.062Z,3.38
2022-10-20T08:53:59.774Z,3.40
2022-10-20T08:56:31.174Z,4.05
2022-10-20T08:58:57.701Z,3.90
2022-10-20T09:01:33.409Z,3.63
2022-10-20T09:04:23.411Z,3.60
2022-10-20T09:06:55.446Z,3.85
2022-10-20T09:09:24.159Z,3.90
2022-10-20T09:11:51.804Z,2.22
2022-10-20T09:14:18.294Z,4.07
2022-10-20T09:16:59.698Z,3.10
2022-10-20T09:19:28.446Z,3.90
2022-10-20T09:22:06.171Z,3.80
2022-10-20T09:24:35.453Z,3.33
2022-10-20T09:27:31.560Z,3.80
2022-10-20T09:29:58.005Z,3.72
2022-10-20T09:32:56.259Z,3.58
2022-10-20T09:35:24.866Z,3.70
2022-10-20T09:37:56.711Z,3.60
2022-10-20T09:40:26.246Z,3.60
2022-10-20T09:43:02.426Z,3.55
2022-10-20T09:45:31.721Z,3.47
2022-10-20T09:48:22.781Z,2.63
2022-10-20T09:50:55.074Z,3.50
2022-10-20T09:53:36.001Z,3.50
2022-10-20T09:56:02.722Z,3.58
2022-10-20T09:58:39.179Z,3.55
2022-10-20T10:01:17.637Z,3.65
2022-10-20T10:03:51.569Z,3.63
2022-10-20T10:06:26.469Z,3.45
2022-10-20T10:08:52.991Z,3.65
2022-10-20T10:11:22.087Z,3.28
2022-10-20T10:13:51.415Z,3.85
2022-10-20T10:16:21.920Z,3.72
2022-10-20T10:19:03.567Z,3.55
2022-10-20T10:21:43.071Z,3.10
2022-10-20T10:24:37.492Z,3.92
2022-10-20T10:27:04.366Z,3.83
2022-10-20T10:29:35.457Z,3.75
2022-10-20T10:32:18.585Z,3.50
2022-10-20T10:34:58.744Z,3.50
2022-10-20T10:37:26.981Z,3.72
2022-10-20T10:39:55.321Z,3.53
2022-10-20T10:42:40.311Z,3.60
2022-10-20T10:45:09.682Z,3.50
2022-10-20T10:48:09.542Z,3.88
2022-10-20T10:51:00.744Z,3.50
2022-10-20T10:53:57.159Z,3.95
2022-10-20T10:56:38.545Z,4.03
2022-10-20T10:59:17.077Z,3.90
2022-10-20T11:01:51.650Z,3.90
2022-10-20T11:04:32.460Z,3.67
2022-10-20T11:07:12.273Z,4.10
2022-10-20T11:09:48.059Z,3.70
2022-10-20T11:12:14.430Z,4.03
2022-10-20T11:14:48.090Z,4.22
2022-10-20T11:17:33.576Z,3.90
2022-10-20T11:20:25.048Z,3.55
2022-10-20T11:23:21.914Z,4.20
2022-10-20T11:25:56.218Z,3.53
2022-10-20T11:28:29.451Z,4.03
2022-10-20T11:30:59.060Z,4.38
2022-10-20T11:33:38.083Z,4.03
2022-10-20T11:36:16.353Z,4.30
2022-10-20T11:38:49.541Z,4.43
2022-10-20T11:41:20.207Z,4.10
2022-10-20T11:43:53.100Z,3.78
2022-10-20T11:46:25.200Z,4.45
2022-10-20T11:48:54.172Z,4.45
2022-10-20T11:54:17.701Z,4.10
2022-10-20T11:57:05.646Z,4.90
2022-10-20T11:59:46.055Z,4.32
2022-10-20T12:02:24.832Z,5.32
2022-10-20T12:04:54.430Z,4.68
2022-10-20T12:07:39.358Z,5.45
2022-10-20T12:10:27.442Z,5.03
2022-10-20T12:13:20.490Z,5.50
2022-10-20T12:15:52.757Z,4.72
2022-10-20T12:18:33.767Z,5.72
2022-10-20T12:21:06.637Z,5.45
2022-10-20T12:23:45.518Z,5.40
2022-10-20T12:26:30.265Z,5.57
2022-10-20T12:28:57.899Z,5.10
2022-10-20T12:31:25.718Z,5.57
2022-10-20T12:33:53.332Z,5.55
2022-10-20T12:36:19.746Z,5.65
2022-10-20T12:38:52.354Z,5.13
2022-10-20T12:41:33.800Z,5.35
2022-10-20T12:44:04.667Z,5.13
2022-10-20T12:46:33.845Z,5.72
2022-10-20T12:49:11.043Z,5.10
2022-10-20T12:51:49.426Z,5.75
2022-10-20T12:54:21.333Z,5.47
2022-10-20T12:56:49.026Z,5.05
2022-10-20T12:59:29.064Z,5.13
2022-10-20T13:02:10.903Z,5.57
2022-10-20T13:04:57.892Z,5.50
2022-10-20T13:07:46.329Z,4.55
2022-10-20T13:10:25.156Z,5.03
2022-10-20T13:12:51.695Z,5.47
2022-10-20T13:15:21.719Z,5.28
2022-10-20T13:18:11.258Z,5.20
2022-10-20T13:20:46.041Z,5.45
2022-10-20T13:23:18.561Z,5.45
2022-10-20T13:25:48.455Z,4.13
2022-10-20T13:28:14.968Z,5.78
2022-10-20T13:31:04.679Z,5.60
2022-10-20T13:34:06.003Z,4.40
2022-10-20T13:37:25.592Z,5.47
2022-10-20T13:40:24.427Z,5.13
2022-10-20T13:43:09.172Z,5.20
2022-10-20T13:46:16.710Z,4.93
2022-10-20T13:48:52.602Z,4.65
2022-10-20T13:51:23.957Z,5.00
2022-10-20T13:53:55.381Z,4.85
2022-10-20T13:56:35.455Z,4.55
2022-10-20T13:59:06.358Z,5.22
2022-10-20T14:01:35.547Z,5.05
2022-10-20T14:04:02.242Z,4.68
2022-10-20T14:06:38.763Z,5.30
2022-10-20T14:09:14.516Z,4.65
2022-10-20T14:11:42.122Z,4.68
2022-10-20T14:14:14.501Z,4.65
2022-10-20T14:17:07.414Z,4.53
2022-10-20T14:19:35.626Z,4.53
2022-10-20T14:22:23.111Z,4.95
2022-10-20T14:24:53.774Z,5.05
2022-10-20T14:27:23.406Z,4.90
2022-10-20T14:29:51.545Z,4.60
2022-10-20T14:32:24.325Z,4.25
2022-10-20T14:35:00.236Z,4.30
2022-10-20T14:37:38.811Z,4.88
2022-10-20T14:40:18.522Z,4.60
2022-10-20T14:42:45.641Z,4.30
2022-10-20T14:45:25.156Z,4.15
2022-10-20T14:47:53.388Z,4.15
2022-10-20T14:50:35.165Z,4.15
2022-10-20T14:53:30.375Z,3.72
2022-10-20T14:56:00.726Z,4.18
2022-10-20T14:58:36.926Z,4.13
2022-10-20T15:01:18.534Z,4.30
2022-10-20T15:03:45.366Z,4.22
2022-10-20T15:06:17.959Z,3.90
2022-10-20T15:08:57.707Z,4.20
2022-10-20T15:11:27.139Z,4.40
2022-10-20T15:13:56.045Z,4.65
2022-10-20T15:16:42.919Z,3.85
2022-10-20T15:19:30.045Z,4.00
2022-10-20T15:22:00.625Z,4.13
2022-10-20T15:24:28.546Z,3.90
2022-10-20T15:26:56.060Z,3.78
2022-10-20T15:29:22.759Z,4.15
2022-10-20T15:31:49.679Z,3.47
2022-10-20T15:34:16.314Z,4.00
2022-10-20T15:36:43.917Z,3.97
2022-10-20T15:39:12.194Z,4.10
2022-10-20T15:41:39.570Z,3.90
2022-10-20T15:44:22.309Z,3.65
2022-10-20T15:46:55.158Z,3.95
2022-10-20T15:49:22.316Z,4.15
2022-10-20T15:51:50.553Z,4.30
2022-10-20T15:54:20.189Z,4.43
2022-10-20T15:56:47.321Z,4.53
2022-10-20T15:59:13.783Z,3.80
2022-10-20T16:01:40.414Z,4.28
2022-10-20T16:04:20.201Z,4.15
2022-10-20T16:06:47.146Z,4.80
2022-10-20T16:09:15.998Z,4.93
2022-10-20T16:11:43.007Z,4.22
2022-10-20T16:14:09.548Z,4.28
2022-10-20T16:16:36.030Z,4.70
2022-10-20T16:19:02.936Z,5.00
2022-10-20T16:21:29.401Z,4.57
2022-10-20T16:23:55.878Z,4.63
2022-10-20T16:26:22.404Z,4.35
2022-10-20T16:28:49.194Z,4.78
2022-10-20T16:31:16.847Z,4.97
2022-10-20T16:33:44.049Z,4.75
2022-10-20T16:36:12.488Z,5.32
2022-10-20T16:38:40.358Z,4.95
2022-10-20T16:41:10.687Z,5.28
2022-10-20T16:43:42.394Z,5.47
2022-10-20T16:46:10.480Z,5.47
2022-10-20T16:48:39.036Z,5.68
2022-10-20T16:51:10.099Z,5.65
2022-10-20T16:53:38.049Z,5.45
2022-10-20T16:56:04.818Z,5.30
2022-10-20T16:58:31.321Z,4.88
2022-10-20T17:00:58.907Z,4.95
2022-10-20T17:03:25.543Z,4.72
2022-10-20T17:06:00.359Z,5.57
2022-10-20T17:08:28.187Z,5.45
2022-10-20T17:11:00.318Z,5.15
2022-10-20T17:13:27.693Z,5.47
2022-10-20T17:15:54.169Z,4.88
2022-10-20T17:18:21.706Z,5.28
2022-10-20T17:20:53.373Z,5.68
2022-10-20T17:23:21.931Z,5.25
2022-10-20T17:25:49.035Z,5.80
2022-10-20T17:28:16.170Z,4.78
2022-10-20T17:30:44.489Z,5.65
2022-10-20T17:33:11.520Z,6.18
2022-10-20T17:35:38.579Z,5.05
2022-10-20T17:38:06.540Z,5.63
2022-10-20T17:40:37.883Z,4.75
2022-10-20T17:43:04.824Z,4.85
2022-10-20T17:45:34.943Z,4.22
2022-10-20T17:48:04.252Z,5.60
2022-10-20T17:50:31.087Z,5.30
2022-10-20T17:53:00.993Z,6.25
2022-10-20T17:55:28.297Z,5.13
2022-10-20T17:57:55.240Z,5.93
2022-10-20T18:00:31.745Z,5.38
2022-10-20T18:03:08.387Z,6.10
2022-10-20T18:05:38.154Z,5.88
2022-10-20T18:08:05.114Z,5.88
2022-10-20T18:10:33.060Z,5.45
2022-10-20T18:12:59.739Z,4.90
2022-10-20T18:15:26.489Z,5.85
2022-10-20T18:17:53.319Z,5.80
2022-10-20T18:20:20.229Z,5.78
2022-10-20T18:22:46.936Z,5.80
2022-10-20T18:25:13.575Z,6.47
2022-10-20T18:27:40.298Z,5.88
2022-10-20T18:30:08.647Z,5.22
2022-10-20T18:32:36.511Z,5.78
2022-10-20T18:35:03.891Z,4.80
2022-10-20T18:37:30.371Z,5.45
2022-10-20T18:39:57.030Z,5.32
2022-10-20T18:42:23.670Z,5.18
2022-10-20T18:44:50.206Z,5.88
2022-10-20T18:47:16.805Z,5.05
2022-10-20T18:49:43.337Z,5.47
2022-10-20T18:52:10.268Z,5.35
2022-10-20T18:54:36.821Z,5.22
2022-10-20T18:57:04.227Z,5.50
2022-10-20T18:59:30.904Z,5.35
2022-10-20T19:01:57.466Z,4.78
2022-10-20T19:04:24.096Z,5.80
2022-10-20T19:06:50.917Z,6.10
2022-10-20T19:09:21.425Z,4.68
2022-10-20T19:14:17.428Z,5.88
2022-10-20T19:16:49.795Z,5.13
2022-10-20T19:19:16.787Z,4.47
2022-10-20T19:21:43.316Z,5.13
2022-10-20T19:24:16.809Z,4.70
2022-10-20T19:27:21.042Z,5.45
2022-10-20T19:29:42.874Z,5.22
2022-10-20T19:32:09.690Z,5.20
2022-10-20T19:34:39.084Z,4.90
2022-10-20T19:37:06.831Z,4.93
2022-10-20T19:39:37.082Z,4.72
2022-10-20T19:42:06.219Z,4.95
2022-10-20T19:44:32.884Z,5.85
2022-10-20T19:46:59.455Z,4.78
2022-10-20T19:49:26.822Z,5.07
2022-10-20T19:51:53.904Z,5.43
2022-10-20T19:54:20.501Z,5.88
2022-10-20T19:56:47.447Z,5.32
2022-10-20T19:59:14.374Z,5.65
2022-10-20T20:01:40.922Z,5.60
2022-10-20T20:04:08.022Z,5.82
2022-10-20T20:06:35.641Z,5.13
2022-10-20T20:09:06.310Z,5.32
2022-10-20T20:11:34.697Z,4.38
2022-10-20T20:14:04.679Z,5.50
2022-10-20T20:16:31.510Z,5.10
2022-10-20T20:18:58.289Z,5.32
2022-10-20T20:21:25.782Z,5.40
2022-10-20T20:24:00.133Z,5.45
2022-10-20T20:26:33.628Z,4.75
2022-10-20T20:29:01.058Z,5.18
2022-10-20T20:31:28.860Z,5.00
2022-10-20T20:33:57.070Z,5.18
2022-10-20T20:36:27.407Z,5.05
2022-10-20T20:38:58.994Z,5.03
2022-10-20T20:41:30.145Z,4.55
2022-10-20T20:43:58.669Z,5.05
2022-10-20T20:46:29.355Z,5.07
2022-10-20T20:48:56.310Z,4.78
2022-10-20T20:51:23.247Z,4.85
2022-10-20T20:53:49.861Z,5.05
2022-10-20T20:56:20.556Z,5.13
2022-10-20T20:58:49.916Z,4.88
2022-10-20T21:01:21.949Z,5.13
2022-10-20T21:03:55.224Z,4.70
2022-10-20T21:06:25.725Z,5.15
2022-10-20T21:09:00.193Z,5.15
2022-10-20T21:11:27.477Z,4.63
2022-10-20T21:13:55.484Z,4.90
2022-10-20T21:16:25.746Z,5.20
2022-10-20T21:18:56.323Z,4.68
2022-10-20T21:21:27.932Z,5.10
2022-10-20T21:23:55.579Z,4.70
2022-10-20T21:26:23.565Z,4.78
2022-10-20T21:28:50.600Z,4.80
2022-10-20T21:31:21.083Z,5.50
2022-10-20T21:33:52.433Z,4.43
2022-10-20T21:36:20.475Z,5.00
2022-10-20T21:38:47.448Z,4.57
2022-10-20T21:41:20.163Z,5.18
2022-10-20T21:43:55.334Z,4.63
2022-10-20T21:48:53.539Z,4.53
2022-10-20T21:51:29.267Z,4.30
2022-10-20T21:53:57.519Z,4.78
2022-10-20T21:56:24.676Z,5.07
2022-10-20T21:58:51.946Z,4.30
2022-10-20T22:01:21.349Z,5.00
2022-10-20T22:03:49.229Z,5.05
2022-10-20T22:06:18.345Z,4.72
2022-10-20T22:08:49.022Z,6.03
2022-10-20T22:11:20.205Z,5.40
2022-10-20T22:13:47.502Z,4.65
2022-10-20T22:16:17.260Z,4.57
2022-10-20T22:18:43.843Z,4.97
2022-10-20T22:21:13.841Z,4.07
2022-10-20T22:23:41.299Z,5.15
2022-10-20T22:26:08.261Z,6.15
2022-10-20T22:28:34.866Z,5.43
2022-10-20T22:33:33.127Z,5.82
2022-10-20T22:35:59.582Z,4.72
2022-10-20T22:38:26.181Z,5.38
2022-10-20T22:40:52.698Z,5.13
2022-10-20T22:43:19.265Z,5.57
2022-10-20T22:45:45.745Z,5.40
2022-10-20T22:48:12.216Z,5.32
2022-10-20T22:50:38.679Z,5.18
2022-10-20T22:53:05.099Z,5.63
2022-10-20T22:55:31.501Z,4.88
2022-10-20T23:00:25.404Z,6.20
2022-10-20T23:02:51.809Z,6.07
2022-10-20T23:05:18.317Z,6.72
2022-10-20T23:07:44.761Z,5.82
2022-10-20T23:10:11.320Z,5.50
2022-10-20T23:12:38.076Z,5.57
2022-10-20T23:15:06.267Z,6.85
2022-10-20T23:17:33.255Z,5.90
2022-10-20T23:19:59.693Z,5.95
2022-10-20T23:22:26.194Z,6.03
2022-10-20T23:24:52.682Z,5.93
2022-10-20T23:27:19.124Z,6.40
2022-10-20T23:29:45.640Z,5.90
2022-10-20T23:32:12.061Z,5.85
2022-10-20T23:34:38.532Z,6.15
2022-10-20T23:37:05.061Z,6.13
2022-10-20T23:39:31.464Z,6.57
2022-10-20T23:41:59.044Z,6.40
2022-10-20T23:44:25.532Z,6.57
2022-10-20T23:46:52.008Z,6.82
2022-10-20T23:49:18.553Z,6.45
2022-10-20T23:51:45.096Z,7.10
2022-10-20T23:54:11.694Z,6.00
2022-10-20T23:56:38.132Z,5.63
2022-10-20T23:59:04.535Z,7.00
